Time;durP1;ratioP1;P1;durP2;ratioP2;P2;SDS_P1;SDS_P2;PMS_P1;PMS_P2;Temp;Humidity;BMP_temperature;BMP_pressure;BME280_temperature;BME280_humidity;BME280_pressure;Samples;Min_cycle;Max_cycle;Signal;HPM_P1;HPM_P2
2022/04/06 00:01:57;;;;;;;28.67;14.40;;;10.60;99.90;;;;;;5014955;28;20025;-84
2022/04/06 00:04:24;;;;;;;29.15;14.88;;;10.60;99.90;;;;;;4998545;28;20466;-84
2022/04/06 00:06:52;;;;;;;30.23;15.68;;;10.60;99.90;;;;;;4998720;28;20025;-84
2022/04/06 00:09:20;;;;;;;27.80;14.13;;;10.60;99.90;;;;;;5014839;28;20037;-84
2022/04/06 00:11:46;;;;;;;26.58;13.35;;;10.60;99.90;;;;;;5015026;28;20065;-83
2022/04/06 00:14:12;;;;;;;30.08;14.63;;;10.60;99.90;;;;;;5014647;28;20484;-84
2022/04/06 00:16:38;;;;;;;31.75;12.85;;;10.60;99.90;;;;;;5018643;28;20362;-84
2022/04/06 00:19:06;;;;;;;25.20;13.43;;;10.60;99.90;;;;;;5033808;28;20087;-84
2022/04/06 00:21:32;;;;;;;31.15;13.38;;;10.60;99.90;;;;;;5053667;28;20104;-84
2022/04/06 00:23:58;;;;;;;29.50;13.40;;;10.60;99.90;;;;;;5038648;28;20124;-84
2022/04/06 00:26:25;;;;;;;29.52;12.98;;;10.60;99.90;;;;;;5038389;28;20056;-85
2022/04/06 00:28:51;;;;;;;31.77;13.63;;;10.60;99.90;;;;;;5038226;28;20059;-84
2022/04/06 00:31:16;;;;;;;24.48;11.75;;;10.60;99.90;;;;;;5037696;28;20064;-84
2022/04/06 00:33:42;;;;;;;28.75;12.63;;;10.60;99.90;;;;;;5038036;28;20092;-85
2022/04/06 00:36:08;;;;;;;25.65;11.85;;;10.60;99.90;;;;;;5038466;28;20067;-84
2022/04/06 00:38:33;;;;;;;32.95;12.60;;;10.50;99.90;;;;;;5037998;28;20113;-83
2022/04/06 00:40:59;;;;;;;29.83;11.80;;;10.50;99.90;;;;;;5037978;28;20033;-84
2022/04/06 00:43:25;;;;;;;31.17;13.02;;;10.50;99.90;;;;;;5037767;28;20071;-84
2022/04/06 00:45:50;;;;;;;24.15;11.07;;;10.50;99.90;;;;;;5021409;28;20017;-84
2022/04/06 00:48:16;;;;;;;21.90;10.88;;;10.50;99.90;;;;;;5021295;28;20032;-84
2022/04/06 00:50:45;;;;;;;25.25;10.90;;;10.50;99.90;;;;;;5038060;28;20496;-84
2022/04/06 00:53:12;;;;;;;24.95;11.65;;;10.50;99.90;;;;;;5038506;28;20449;-85
2022/04/06 00:55:39;;;;;;;28.83;11.80;;;10.50;99.90;;;;;;5037942;28;20036;-84
2022/04/06 00:58:06;;;;;;;26.77;11.13;;;10.50;99.90;;;;;;5021317;28;20090;-84
2022/04/06 01:00:32;;;;;;;24.08;11.38;;;10.50;99.90;;;;;;5037129;28;20030;-84
2022/04/06 01:02:58;;;;;;;30.60;12.48;;;10.50;99.90;;;;;;5037712;28;20163;-84
2022/04/06 01:05:25;;;;;;;24.45;12.43;;;10.50;99.90;;;;;;5037337;28;20020;-84
2022/04/06 01:07:52;;;;;;;27.98;11.95;;;10.50;99.90;;;;;;5037601;28;20025;-84
2022/04/06 01:10:19;;;;;;;27.52;12.77;;;10.50;99.90;;;;;;5037371;28;20060;-84
2022/04/06 01:12:48;;;;;;;24.80;12.40;;;10.50;99.90;;;;;;5037439;28;20029;-84
2022/04/06 01:15:16;;;;;;;31.15;12.80;;;10.40;99.90;;;;;;5021348;28;20103;-86
2022/04/06 01:17:42;;;;;;;29.08;12.95;;;10.40;99.90;;;;;;5054900;28;20021;-83
2022/04/06 01:20:10;;;;;;;27.85;13.15;;;10.50;99.90;;;;;;5037270;28;20111;-84
2022/04/06 01:22:36;;;;;;;32.42;12.77;;;10.40;99.90;;;;;;5037158;28;20016;-83
2022/04/06 01:25:03;;;;;;;27.30;12.00;;;10.40;99.90;;;;;;5037233;28;20437;-84
2022/04/06 01:27:29;;;;;;;24.52;11.35;;;10.40;99.90;;;;;;5037167;28;20017;-84
2022/04/06 01:29:58;;;;;;;26.27;10.93;;;10.40;99.90;;;;;;5037157;28;20115;-83
2022/04/06 01:32:26;;;;;;;24.92;11.05;;;10.40;99.90;;;;;;5036468;28;20358;-84
2022/04/06 01:34:56;;;;;;;27.48;10.85;;;10.40;99.90;;;;;;5054124;28;20049;-84
2022/04/06 01:37:22;;;;;;;25.73;10.33;;;10.40;99.90;;;;;;5037013;28;20036;-84
2022/04/06 01:39:49;;;;;;;26.77;10.85;;;10.40;99.90;;;;;;5020594;28;20055;-83
2022/04/06 01:42:20;;;;;;;24.67;10.40;;;10.40;99.90;;;;;;5053789;28;20102;-84
2022/04/06 01:44:47;;;;;;;28.30;10.82;;;10.40;99.90;;;;;;5036990;28;20112;-84
2022/04/06 01:47:16;;;;;;;24.00;10.60;;;10.40;99.90;;;;;;5037053;28;20025;-84
2022/04/06 01:52:28;;;;;;;22.15;10.65;;;10.40;99.90;;;;;;5039645;28;20398;-83
2022/04/06 01:55:02;;;;;;;24.08;8.98;;;10.40;99.90;;;;;;5036411;28;20029;-84
2022/04/06 01:57:29;;;;;;;25.00;10.10;;;10.40;99.90;;;;;;5036587;28;20449;-83
2022/04/06 01:59:55;;;;;;;26.05;9.73;;;10.40;99.90;;;;;;5036661;28;20025;-83
2022/04/06 02:02:22;;;;;;;17.55;8.48;;;10.40;99.90;;;;;;5036506;28;20044;-83
2022/04/06 02:04:50;;;;;;;19.17;8.52;;;10.40;99.90;;;;;;5020397;28;20025;-83
2022/04/06 02:07:16;;;;;;;22.90;9.73;;;10.40;99.90;;;;;;5036780;28;20017;-83
2022/04/06 02:09:42;;;;;;;24.75;7.82;;;10.40;99.90;;;;;;5019885;28;20036;-83
2022/04/06 02:12:09;;;;;;;25.00;8.85;;;10.40;99.90;;;;;;5020313;28;20031;-83
2022/04/06 02:14:38;;;;;;;20.20;8.23;;;10.40;99.90;;;;;;5036078;28;20094;-83
2022/04/06 02:17:04;;;;;;;22.23;7.72;;;10.40;99.90;;;;;;5004605;28;20021;-83
2022/04/06 02:19:31;;;;;;;24.40;7.88;;;10.30;99.90;;;;;;5036243;28;20525;-83
2022/04/06 02:21:57;;;;;;;21.67;8.30;;;10.40;99.90;;;;;;5035590;28;20120;-83
2022/04/06 02:24:23;;;;;;;24.15;8.93;;;10.40;99.90;;;;;;5054074;28;20078;-83
2022/04/06 02:26:48;;;;;;;20.48;7.65;;;10.30;99.90;;;;;;5019918;28;20029;-83
2022/04/06 02:29:15;;;;;;;19.25;7.50;;;10.30;99.90;;;;;;5054311;28;20450;-83
2022/04/06 02:31:41;;;;;;;18.35;7.43;;;10.40;99.90;;;;;;5003704;28;20037;-83
2022/04/06 02:34:07;;;;;;;17.67;7.78;;;10.30;99.90;;;;;;5037919;28;20060;-83
2022/04/06 02:36:33;;;;;;;20.02;7.70;;;10.30;99.90;;;;;;5056767;28;20033;-82
2022/04/06 02:39:00;;;;;;;21.27;7.65;;;10.30;99.90;;;;;;5046434;28;20028;-84
2022/04/06 02:41:26;;;;;;;19.65;7.53;;;10.30;99.90;;;;;;5029362;28;20033;-84
2022/04/06 02:43:52;;;;;;;29.45;8.30;;;10.30;99.90;;;;;;5041807;28;20028;-83
2022/04/06 02:46:17;;;;;;;17.65;7.15;;;10.30;99.90;;;;;;5060443;28;20021;-84
2022/04/06 02:48:43;;;;;;;15.32;6.75;;;10.30;99.90;;;;;;5026727;28;20033;-84
2022/04/06 02:51:09;;;;;;;20.23;6.88;;;10.30;99.90;;;;;;5021009;28;20150;-84
2022/04/06 02:53:35;;;;;;;19.73;6.78;;;10.30;99.90;;;;;;5035793;28;20021;-84
2022/04/06 02:56:00;;;;;;;17.42;6.40;;;10.30;99.90;;;;;;5035891;28;20029;-83
2022/04/06 02:58:26;;;;;;;14.73;5.80;;;10.30;99.90;;;;;;5035637;28;20108;-84
2022/04/06 03:00:54;;;;;;;18.02;6.25;;;10.30;99.90;;;;;;5019162;28;20033;-84
2022/04/06 03:03:20;;;;;;;17.73;6.38;;;10.30;99.90;;;;;;5035958;28;20063;-84
2022/04/06 03:05:46;;;;;;;23.13;7.28;;;10.30;99.90;;;;;;5035299;28;20039;-84
2022/04/06 03:08:11;;;;;;;18.75;5.82;;;10.30;99.90;;;;;;5019060;28;20017;-84
2022/04/06 03:10:37;;;;;;;19.90;5.90;;;10.30;99.90;;;;;;5034631;28;20031;-84
2022/04/06 03:13:03;;;;;;;14.70;5.60;;;10.30;99.90;;;;;;5035639;28;20053;-84
2022/04/06 03:15:28;;;;;;;15.70;6.03;;;10.20;99.90;;;;;;5035139;28;20024;-84
2022/04/06 03:17:54;;;;;;;14.23;5.53;;;10.20;99.90;;;;;;5035329;28;20021;-84
2022/04/06 03:20:20;;;;;;;16.58;5.22;;;10.20;99.90;;;;;;5035298;28;20036;-84
2022/04/06 03:22:46;;;;;;;14.38;5.45;;;10.20;99.90;;;;;;5035521;28;20115;-84
2022/04/06 03:25:12;;;;;;;20.40;6.25;;;10.20;99.90;;;;;;5035413;28;20070;-84
2022/04/06 03:27:38;;;;;;;13.50;4.47;;;10.20;99.90;;;;;;5035847;28;20025;-84
2022/04/06 03:30:06;;;;;;;16.13;4.55;;;10.20;99.90;;;;;;5035362;28;20029;-83
2022/04/06 03:32:31;;;;;;;12.88;4.60;;;10.20;99.90;;;;;;5034921;28;20382;-84
2022/04/06 03:34:57;;;;;;;16.80;4.78;;;10.20;99.90;;;;;;5015011;28;20049;-83
2022/04/06 03:37:23;;;;;;;18.05;4.70;;;10.10;99.90;;;;;;5031927;28;20021;-83
2022/04/06 03:39:49;;;;;;;12.50;4.38;;;10.10;99.90;;;;;;5015070;28;20943;-83
2022/04/06 03:42:15;;;;;;;15.68;3.90;;;10.20;99.90;;;;;;5015568;28;20045;-83
2022/04/06 03:44:41;;;;;;;15.90;4.50;;;10.10;99.90;;;;;;5015111;28;20120;-84
2022/04/06 03:47:06;;;;;;;14.20;5.55;;;10.10;99.90;;;;;;5031748;28;20518;-84
2022/04/06 03:49:32;;;;;;;12.18;3.67;;;10.10;99.90;;;;;;5031862;28;20021;-83
2022/04/06 03:51:58;;;;;;;11.05;3.92;;;10.10;99.90;;;;;;5031872;28;20028;-83
2022/04/06 03:54:23;;;;;;;16.58;4.25;;;10.10;99.90;;;;;;5033360;28;20033;-84
2022/04/06 03:56:49;;;;;;;10.80;3.65;;;10.10;99.90;;;;;;5016436;28;20446;-83
2022/04/06 03:59:15;;;;;;;13.93;3.80;;;10.10;99.90;;;;;;5036720;28;20075;-83
2022/04/06 04:01:41;;;;;;;13.98;3.85;;;10.10;99.90;;;;;;5035977;28;20061;-83
2022/04/06 04:04:07;;;;;;;14.73;3.88;;;10.10;99.90;;;;;;5019466;28;20025;-83
2022/04/06 04:06:32;;;;;;;12.43;3.40;;;10.10;99.90;;;;;;5035538;28;20053;-85
2022/04/06 04:08:58;;;;;;;13.43;3.40;;;10.10;99.90;;;;;;5035573;28;20036;-84
2022/04/06 04:11:24;;;;;;;9.20;3.38;;;10.10;99.90;;;;;;5035534;28;20072;-83
2022/04/06 04:13:50;;;;;;;12.35;3.90;;;10.10;99.90;;;;;;5035291;28;20026;-83
2022/04/06 04:16:15;;;;;;;8.07;3.30;;;10.10;99.90;;;;;;5035328;28;20067;-83
2022/04/06 04:18:41;;;;;;;10.40;4.45;;;10.00;99.90;;;;;;5034620;28;20029;-83
2022/04/06 04:23:52;;;;;;;16.27;3.35;;;10.10;99.90;;;;;;5035403;28;20083;-83
2022/04/06 04:26:17;;;;;;;16.27;3.50;;;10.00;99.90;;;;;;5035881;28;20484;-83
2022/04/06 04:28:43;;;;;;;10.35;3.13;;;10.00;99.90;;;;;;5002502;28;20029;-83
2022/04/06 04:31:09;;;;;;;15.00;5.15;;;10.00;99.90;;;;;;5035682;28;20474;-83
2022/04/06 04:33:34;;;;;;;16.70;4.00;;;10.00;99.90;;;;;;5036480;28;20494;-84
2022/04/06 04:36:00;;;;;;;11.82;3.10;;;10.00;99.90;;;;;;5019247;28;20033;-83
2022/04/06 04:38:26;;;;;;;13.85;3.13;;;10.00;99.90;;;;;;5006306;28;20355;-83
2022/04/06 04:40:54;;;;;;;10.95;3.25;;;10.00;99.90;;;;;;5003818;28;20045;-83
2022/04/06 04:43:23;;;;;;;12.73;3.38;;;10.00;99.90;;;;;;5004113;28;20083;-83
2022/04/06 04:45:49;;;;;;;12.07;3.00;;;10.00;99.90;;;;;;5035297;28;20447;-82
2022/04/06 04:48:15;;;;;;;10.10;3.58;;;10.00;99.90;;;;;;5019086;28;20053;-83
2022/04/06 04:50:41;;;;;;;12.73;3.53;;;10.00;99.90;;;;;;5019420;28;20032;-83
2022/04/06 04:53:06;;;;;;;12.82;3.30;;;10.00;99.90;;;;;;5035724;28;20022;-83
2022/04/06 04:55:33;;;;;;;10.75;3.17;;;9.90;99.90;;;;;;5002065;28;20026;-83
2022/04/06 04:57:59;;;;;;;13.00;3.28;;;9.90;99.90;;;;;;5034070;28;20462;-84
2022/04/06 05:00:25;;;;;;;9.65;3.55;;;9.90;99.90;;;;;;5018308;28;20038;-83
2022/04/06 05:02:51;;;;;;;12.07;3.85;;;9.90;99.90;;;;;;5018088;28;20390;-83
2022/04/06 05:05:17;;;;;;;9.43;3.60;;;9.90;99.90;;;;;;5018090;28;20033;-84
2022/04/06 05:07:42;;;;;;;11.27;3.40;;;9.90;99.90;;;;;;5017700;28;20383;-84
2022/04/06 05:10:09;;;;;;;13.82;4.47;;;9.90;99.90;;;;;;5034590;28;20021;-83
2022/04/06 05:12:35;;;;;;;15.55;3.88;;;9.90;99.90;;;;;;5032869;28;20473;-84
2022/04/06 05:15:01;;;;;;;13.23;3.83;;;9.90;99.90;;;;;;5018018;28;20041;-84
2022/04/06 05:17:28;;;;;;;11.27;4.00;;;9.90;99.90;;;;;;5034446;28;20029;-84
2022/04/06 05:19:54;;;;;;;11.45;3.67;;;9.90;99.90;;;;;;5033811;28;20429;-84
2022/04/06 05:22:20;;;;;;;13.13;3.45;;;9.90;99.90;;;;;;5019279;28;20041;-84
2022/04/06 05:24:46;;;;;;;11.23;3.42;;;9.90;99.90;;;;;;5035059;28;20021;-84
2022/04/06 05:27:12;;;;;;;13.70;3.78;;;9.90;99.90;;;;;;5035116;28;20033;-83
2022/04/06 05:29:38;;;;;;;12.07;3.50;;;9.90;99.90;;;;;;5034595;28;20025;-83
2022/04/06 05:32:04;;;;;;;11.63;3.25;;;9.90;99.90;;;;;;5034337;28;20034;-85
2022/04/06 05:34:30;;;;;;;13.32;3.65;;;9.90;99.90;;;;;;5048481;28;20049;-84
2022/04/06 05:36:59;;;;;;;12.48;3.22;;;9.90;99.90;;;;;;5038132;28;20432;-84
2022/04/06 05:39:29;;;;;;;8.10;3.20;;;9.90;99.90;;;;;;5022203;28;20029;-85
2022/04/06 05:41:55;;;;;;;10.48;3.28;;;9.90;99.90;;;;;;5037489;28;20047;-84
2022/04/06 05:44:21;;;;;;;10.23;3.20;;;9.80;99.90;;;;;;5038700;28;20502;-84
2022/04/06 05:46:47;;;;;;;12.75;3.40;;;9.80;99.90;;;;;;5035637;28;20362;-84
2022/04/06 05:49:12;;;;;;;12.88;3.30;;;9.90;99.90;;;;;;5036294;28;20024;-84
2022/04/06 05:51:38;;;;;;;10.88;3.22;;;9.90;99.90;;;;;;5019743;28;20033;-85
2022/04/06 05:54:04;;;;;;;15.07;3.58;;;9.80;99.90;;;;;;5054345;28;20920;-84
2022/04/06 05:56:32;;;;;;;10.90;3.03;;;9.80;99.90;;;;;;5054534;28;20035;-84
2022/04/06 05:58:58;;;;;;;12.23;3.60;;;9.90;99.90;;;;;;5037490;28;20017;-84
2022/04/06 06:01:27;;;;;;;10.63;3.50;;;9.90;99.90;;;;;;5030969;28;20036;-84
2022/04/06 06:03:53;;;;;;;8.93;3.05;;;9.90;99.90;;;;;;5040082;28;20018;-84
2022/04/06 06:06:21;;;;;;;13.23;4.93;;;9.90;99.90;;;;;;5044413;28;20558;-85
2022/04/06 06:08:48;;;;;;;14.07;4.07;;;9.80;99.90;;;;;;5047010;28;20458;-84
2022/04/06 06:11:15;;;;;;;15.60;4.22;;;9.90;99.90;;;;;;5044341;28;20099;-84
2022/04/06 06:13:41;;;;;;;10.15;3.72;;;9.90;99.90;;;;;;5061884;28;20528;-83
2022/04/06 06:16:06;;;;;;;15.25;5.22;;;9.90;99.90;;;;;;5029353;28;20087;-84
2022/04/06 06:18:32;;;;;;;17.88;4.80;;;9.90;99.90;;;;;;5042182;28;20051;-85
2022/04/06 06:21:07;;;;;;;11.32;4.50;;;9.90;99.90;;;;;;5024814;28;20033;-84
2022/04/06 06:23:33;;;;;;;12.23;4.95;;;9.90;99.90;;;;;;5056208;28;20032;-85
2022/04/06 06:25:58;;;;;;;12.93;4.50;;;10.00;99.90;;;;;;5037178;28;20108;-83
2022/04/06 06:28:26;;;;;;;19.60;5.28;;;10.00;99.90;;;;;;5020341;28;20032;-82
2022/04/06 06:30:51;;;;;;;15.38;5.20;;;9.90;99.90;;;;;;5036099;28;20048;-83
2022/04/06 06:33:17;;;;;;;14.60;4.95;;;10.00;99.90;;;;;;5019174;28;20056;-84
2022/04/06 06:35:43;;;;;;;16.90;4.85;;;10.00;99.90;;;;;;5032275;28;20063;-83
2022/04/06 06:38:09;;;;;;;17.38;6.30;;;10.00;99.90;;;;;;5019576;28;20461;-83
2022/04/06 06:40:34;;;;;;;15.48;4.72;;;10.00;99.90;;;;;;5035825;28;20024;-84
2022/04/06 06:43:00;;;;;;;13.57;4.88;;;10.00;99.90;;;;;;5035123;28;20017;-83
2022/04/06 06:45:26;;;;;;;15.82;4.93;;;10.00;99.90;;;;;;5019508;28;20477;-83
2022/04/06 06:47:51;;;;;;;13.15;4.65;;;10.00;99.90;;;;;;5034810;28;20021;-84
2022/04/06 06:50:18;;;;;;;14.95;5.18;;;10.10;99.90;;;;;;5035916;28;20454;-83
2022/04/06 06:52:44;;;;;;;14.55;4.35;;;10.00;99.90;;;;;;5035627;28;20032;-83
2022/04/06 06:55:11;;;;;;;13.70;4.85;;;10.10;99.90;;;;;;5035313;28;20036;-84
2022/04/06 06:57:37;;;;;;;15.60;4.47;;;10.10;99.90;;;;;;5053589;28;20019;-84
2022/04/06 07:00:04;;;;;;;15.63;4.45;;;10.10;99.90;;;;;;5035298;28;20115;-84
2022/04/06 07:02:30;;;;;;;11.73;3.80;;;10.10;99.90;;;;;;5035660;28;20023;-84
2022/04/06 07:04:58;;;;;;;10.48;4.00;;;10.10;99.90;;;;;;5035157;28;20037;-83
2022/04/06 07:07:24;;;;;;;14.85;4.68;;;10.20;99.90;;;;;;5035865;28;20553;-84
2022/04/06 07:09:49;;;;;;;19.17;4.13;;;10.20;99.90;;;;;;5036005;28;20054;-84
2022/04/06 07:12:15;;;;;;;14.02;3.75;;;10.20;99.90;;;;;;5035443;28;20469;-84
2022/04/06 07:14:41;;;;;;;11.60;3.95;;;10.20;99.90;;;;;;5002611;28;20383;-84
2022/04/06 07:17:06;;;;;;;15.10;3.40;;;10.20;99.90;;;;;;5018552;28;20462;-84
2022/04/06 07:19:34;;;;;;;9.13;3.00;;;10.20;99.90;;;;;;5035264;28;20025;-83
2022/04/06 07:22:00;;;;;;;12.02;3.75;;;10.20;99.90;;;;;;5034859;28;20431;-83
2022/04/06 07:24:25;;;;;;;11.95;4.13;;;10.20;99.90;;;;;;5035265;28;20029;-83
2022/04/06 07:26:51;;;;;;;10.90;3.40;;;10.20;99.90;;;;;;5018246;28;20039;-83
2022/04/06 07:29:17;;;;;;;11.50;2.83;;;10.20;99.90;;;;;;5018356;28;20035;-83
2022/04/06 07:31:42;;;;;;;12.00;3.50;;;10.30;99.90;;;;;;5017549;28;20033;-83
2022/04/06 07:34:09;;;;;;;14.23;2.85;;;10.30;99.90;;;;;;5034825;28;20052;-83
2022/04/06 07:36:35;;;;;;;11.50;2.60;;;10.30;99.90;;;;;;5035159;28;20071;-85
2022/04/06 07:39:09;;;;;;;7.90;2.22;;;10.30;99.90;;;;;;5035016;28;20021;-84
2022/04/06 07:41:35;;;;;;;7.05;2.08;;;10.30;99.90;;;;;;5035065;28;20202;-84
2022/04/06 07:44:02;;;;;;;13.43;2.95;;;10.30;99.90;;;;;;5035026;28;20021;-84
2022/04/06 07:46:27;;;;;;;8.07;2.40;;;10.30;99.90;;;;;;5035020;28;20450;-84
2022/04/06 07:48:53;;;;;;;7.93;2.05;;;10.30;99.90;;;;;;5034950;28;20029;-85
2022/04/06 07:51:19;;;;;;;11.05;2.17;;;10.40;99.90;;;;;;5034837;28;20028;-84
2022/04/06 07:53:44;;;;;;;9.27;1.90;;;10.40;99.90;;;;;;5034752;28;20119;-83
2022/04/06 07:56:10;;;;;;;9.02;2.03;;;10.40;99.90;;;;;;5052861;28;20082;-83
2022/04/06 07:58:39;;;;;;;9.30;1.88;;;10.40;99.90;;;;;;5052721;28;20032;-84
2022/04/06 08:01:08;;;;;;;10.52;2.20;;;10.40;99.90;;;;;;5034704;28;20037;-84
2022/04/06 08:03:34;;;;;;;9.73;1.92;;;10.40;99.90;;;;;;5052402;28;20424;-84
2022/04/06 08:05:59;;;;;;;6.72;2.00;;;10.40;99.90;;;;;;5018346;28;20025;-85
2022/04/06 08:08:27;;;;;;;5.72;1.50;;;10.40;99.90;;;;;;5018390;28;20033;-83
2022/04/06 08:10:53;;;;;;;6.60;1.75;;;10.50;99.90;;;;;;5034475;28;20467;-83
2022/04/06 08:13:18;;;;;;;7.85;2.05;;;10.50;99.90;;;;;;5051880;28;20051;-84
2022/04/06 08:15:46;;;;;;;11.32;2.95;;;10.50;99.90;;;;;;5033802;28;20021;-82
2022/04/06 08:18:11;;;;;;;6.05;2.28;;;10.50;99.90;;;;;;5017873;28;20033;-84
2022/04/06 08:20:37;;;;;;;10.05;2.05;;;10.50;99.90;;;;;;5034612;28;20424;-83
2022/04/06 08:23:03;;;;;;;7.82;1.98;;;10.50;99.90;;;;;;5034218;28;20033;-84
2022/04/06 08:25:29;;;;;;;7.47;2.10;;;10.50;99.90;;;;;;5018361;28;20508;-84
2022/04/06 08:27:55;;;;;;;7.75;2.38;;;10.50;99.90;;;;;;5018298;28;20025;-83
2022/04/06 08:30:22;;;;;;;11.38;1.90;;;10.60;99.90;;;;;;5017763;28;20025;-84
2022/04/06 08:32:48;;;;;;;7.43;1.83;;;10.60;99.90;;;;;;5034750;28;20041;-84
2022/04/06 08:35:19;;;;;;;9.70;2.05;;;10.60;99.90;;;;;;5017773;28;20102;-84
2022/04/06 08:37:45;;;;;;;8.75;2.10;;;10.60;99.90;;;;;;5018723;28;20029;-84
2022/04/06 08:40:12;;;;;;;7.50;2.15;;;10.70;99.90;;;;;;5018105;28;20409;-85
2022/04/06 08:42:38;;;;;;;6.70;2.20;;;10.70;99.90;;;;;;5035799;28;20376;-84
2022/04/06 08:45:08;;;;;;;11.25;3.08;;;10.70;99.90;;;;;;5037944;28;20025;-85
2022/04/06 08:47:37;;;;;;;9.00;2.00;;;10.70;99.90;;;;;;5038231;28;20029;-85
2022/04/06 08:50:05;;;;;;;7.65;2.50;;;10.70;99.90;;;;;;5037955;28;20327;-84
2022/04/06 08:52:37;;;;;;;10.40;2.40;;;10.70;99.90;;;;;;5037886;28;20553;-84
2022/04/06 08:55:03;;;;;;;13.70;3.55;;;10.70;99.90;;;;;;5034618;28;20045;-85
2022/04/06 08:57:28;;;;;;;9.98;3.88;;;10.80;99.90;;;;;;5037540;28;20025;-85
2022/04/06 08:59:54;;;;;;;6.10;2.42;;;10.70;99.90;;;;;;5038301;28;20432;-84
2022/04/06 09:02:22;;;;;;;10.13;3.08;;;10.80;99.90;;;;;;5021198;28;20033;-85
2022/04/06 09:04:55;;;;;;;13.50;3.00;;;10.80;99.90;;;;;;5055843;28;20116;-84
2022/04/06 09:07:24;;;;;;;10.10;3.05;;;10.80;99.90;;;;;;5037424;28;20020;-84
2022/04/06 09:09:55;;;;;;;10.25;2.85;;;10.80;99.90;;;;;;5037935;28;20025;-84
2022/04/06 09:12:23;;;;;;;10.15;3.20;;;10.80;99.90;;;;;;5021431;28;20355;-84
2022/04/06 09:15:10;;;;;;;10.52;3.00;;;10.80;99.90;;;;;;5038008;28;20017;-85
2022/04/06 09:17:43;;;;;;;10.18;3.45;;;10.70;99.90;;;;;;5037705;28;20389;-85
2022/04/06 09:20:10;;;;;;;11.52;3.55;;;10.70;99.90;;;;;;5037221;28;20143;-85
2022/04/06 09:22:37;;;;;;;8.57;3.28;;;10.70;99.90;;;;;;5037185;28;20481;-85
2022/04/06 09:25:05;;;;;;;8.88;3.25;;;10.70;99.90;;;;;;5037069;28;20055;-84
2022/04/06 09:27:34;;;;;;;7.32;3.30;;;10.70;99.90;;;;;;5036967;28;20050;-84
2022/04/06 09:30:03;;;;;;;11.50;3.90;;;10.70;99.90;;;;;;5021037;28;20036;-85
2022/04/06 09:32:29;;;;;;;8.60;4.20;;;10.70;99.90;;;;;;5036910;28;20034;-84
2022/04/06 09:34:54;;;;;;;9.93;3.53;;;10.70;99.90;;;;;;5036677;28;20049;-85
2022/04/06 09:37:28;;;;;;;9.27;3.55;;;10.60;99.90;;;;;;5037022;28;20025;-85
2022/04/06 09:39:56;;;;;;;11.60;3.83;;;10.60;99.90;;;;;;5036895;28;20033;-85
2022/04/06 09:42:29;;;;;;;9.80;4.00;;;10.60;99.90;;;;;;5054792;28;20108;-85
2022/04/06 09:47:54;;;;;;;15.07;5.70;;;10.60;99.90;;;;;;5040141;28;20086;-85
2022/04/06 09:50:22;;;;;;;12.73;4.10;;;10.50;99.90;;;;;;5036547;28;20044;-85
2022/04/06 09:52:51;;;;;;;12.13;5.30;;;10.50;99.90;;;;;;5037144;28;20421;-84
2022/04/06 09:55:18;;;;;;;11.73;4.97;;;10.50;99.90;;;;;;5035481;28;20418;-84
2022/04/06 09:57:55;;;;;;;10.43;4.75;;;10.50;99.90;;;;;;5036798;28;20108;-84
2022/04/06 10:00:23;;;;;;;18.60;5.18;;;10.40;99.90;;;;;;5036168;28;20029;-85
2022/04/06 10:03:06;;;;;;;12.95;5.00;;;10.40;99.90;;;;;;5036375;28;20036;-85
2022/04/06 10:05:33;;;;;;;12.48;4.40;;;10.40;99.90;;;;;;5019760;28;20115;-85
2022/04/06 10:08:06;;;;;;;13.48;5.43;;;10.40;99.90;;;;;;5036346;28;20025;-84
2022/04/06 10:10:33;;;;;;;10.43;5.47;;;10.40;99.90;;;;;;5036552;28;20049;-85
2022/04/06 10:12:59;;;;;;;13.32;5.60;;;10.40;99.90;;;;;;5054480;28;20056;-85
2022/04/06 10:15:25;;;;;;;13.23;5.38;;;10.40;99.90;;;;;;5053979;28;20131;-84
2022/04/06 10:17:52;;;;;;;11.05;5.40;;;10.40;99.90;;;;;;5037203;28;20458;-84
2022/04/06 10:20:40;;;;;;;15.88;5.93;;;10.40;99.90;;;;;;5036036;28;20017;-83
2022/04/06 10:23:21;;;;;;;10.85;5.50;;;10.40;99.90;;;;;;5036396;28;20036;-85
2022/04/06 10:26:03;;;;;;;;;;;10.40;99.90;;;;;;5036902;28;20040;-84
2022/04/06 10:28:33;;;;;;;13.90;5.60;;;10.40;99.90;;;;;;5054230;28;19904;-84
2022/04/06 10:31:15;;;;;;;11.85;5.03;;;10.40;99.90;;;;;;5036743;28;20021;-84
2022/04/06 10:33:41;;;;;;;11.63;5.00;;;10.40;99.90;;;;;;5035849;28;20056;-84
2022/04/06 10:36:30;;;;;;;12.18;5.50;;;10.40;99.90;;;;;;5054168;28;20021;-85
2022/04/06 10:39:05;;;;;;;7.63;4.53;;;10.40;99.90;;;;;;5036277;28;20025;-86
2022/04/06 10:41:31;;;;;;;12.60;5.80;;;10.40;99.90;;;;;;5035526;28;20041;-84
2022/04/06 10:43:57;;;;;;;10.10;5.00;;;10.30;99.90;;;;;;5019600;28;20025;-83
2022/04/06 10:46:40;;;;;;;14.73;6.07;;;10.40;99.90;;;;;;5023269;28;20531;-83
2022/04/06 10:49:06;;;;;;;14.73;6.03;;;10.30;99.90;;;;;;5015141;28;20028;-82
2022/04/06 10:51:37;;;;;;;11.35;5.65;;;10.40;99.90;;;;;;5030979;28;20029;-84
2022/04/06 10:54:12;;;;;;;12.50;5.88;;;10.40;99.90;;;;;;5032400;28;20159;-84
2022/04/06 10:56:50;;;;;;;15.80;5.68;;;10.40;99.90;;;;;;5032498;28;20055;-84
2022/04/06 10:59:17;;;;;;;12.40;5.60;;;10.40;99.90;;;;;;5032488;28;20052;-84
2022/04/06 11:01:46;;;;;;;13.65;5.75;;;10.40;99.90;;;;;;5015878;28;20052;-84
2022/04/06 11:04:24;;;;;;;9.20;5.63;;;10.40;99.90;;;;;;5032136;28;20029;-84
2022/04/06 11:06:59;;;;;;;11.98;6.00;;;10.40;99.90;;;;;;5016250;28;20057;-84
2022/04/06 11:12:16;;;;;;;;;;;10.40;99.90;;;;;;5033974;28;20076;-84
2022/04/06 11:14:44;;;;;;;11.40;6.10;;;10.40;99.90;;;;;;5047287;28;19932;-84
2022/04/06 11:17:53;;;;;;;14.82;6.95;;;10.40;99.90;;;;;;5057652;28;20029;-83
2022/04/06 11:20:18;;;;;;;11.55;5.43;;;10.40;99.90;;;;;;5054360;28;20029;-84
2022/04/06 11:22:54;;;;;;;10.55;5.60;;;10.40;99.90;;;;;;5037959;28;20103;-83
2022/04/06 11:25:22;;;;;;;9.75;6.20;;;10.40;99.90;;;;;;5054720;28;20044;-82
2022/04/06 11:27:49;;;;;;;11.18;6.38;;;10.50;99.90;;;;;;5020452;28;20079;-84
2022/04/06 11:30:20;;;;;;;14.52;6.10;;;10.50;99.90;;;;;;5053441;28;20025;-82
2022/04/06 11:33:02;;;;;;;13.07;4.82;;;10.50;99.90;;;;;;5036104;28;20029;-83
2022/04/06 11:35:31;;;;;;;12.63;4.93;;;10.60;99.90;;;;;;5040987;28;20029;-83
2022/04/06 11:37:57;;;;;;;11.10;4.43;;;10.60;99.90;;;;;;5045589;28;20024;-84
2022/04/06 11:40:40;;;;;;;12.38;4.85;;;10.60;99.90;;;;;;5049022;28;20078;-83
2022/04/06 11:43:08;;;;;;;10.10;4.65;;;10.70;99.90;;;;;;5047610;28;20029;-83
2022/04/06 11:45:40;;;;;;;11.05;4.68;;;10.60;99.90;;;;;;5048072;28;20028;-83
2022/04/06 11:48:12;;;;;;;9.95;4.40;;;10.60;99.90;;;;;;5069361;28;20025;-85
2022/04/06 11:50:39;;;;;;;12.02;4.47;;;10.70;99.90;;;;;;5064204;28;20029;-83
2022/04/06 11:53:06;;;;;;;11.20;4.30;;;10.70;99.90;;;;;;5045906;28;20035;-84
2022/04/06 11:55:56;;;;;;;9.95;4.30;;;10.70;99.90;;;;;;5036679;28;20093;-84
2022/04/06 11:58:33;;;;;;;12.20;4.20;;;10.70;99.90;;;;;;5037488;28;20021;-84
2022/04/06 12:01:13;;;;;;;10.18;5.00;;;10.60;99.90;;;;;;5036590;28;20478;-84
2022/04/06 12:03:42;;;;;;;12.68;4.80;;;10.70;99.90;;;;;;5035137;28;20408;-84
2022/04/06 12:06:14;;;;;;;8.45;4.32;;;10.70;99.90;;;;;;5035401;28;20032;-85
2022/04/06 12:08:41;;;;;;;11.27;4.53;;;10.70;99.90;;;;;;5035825;28;20489;-85
2022/04/06 12:11:12;;;;;;;11.05;4.25;;;10.70;99.90;;;;;;5035779;28;20025;-84
2022/04/06 12:13:40;;;;;;;12.07;4.88;;;10.70;99.90;;;;;;5056388;28;20032;-84
2022/04/06 12:16:07;;;;;;;10.65;4.57;;;10.70;99.90;;;;;;5040251;28;20025;-84
2022/04/06 12:18:36;;;;;;;12.60;4.68;;;10.70;99.90;;;;;;5027253;28;20025;-84
2022/04/06 12:21:01;;;;;;;10.50;4.28;;;10.70;99.90;;;;;;5049321;28;20036;-83
2022/04/06 12:23:31;;;;;;;9.95;4.82;;;10.80;99.90;;;;;;5048257;28;20025;-83
2022/04/06 12:25:58;;;;;;;9.25;4.22;;;10.80;99.90;;;;;;5048913;28;20064;-84
2022/04/06 12:28:26;;;;;;;13.10;4.63;;;10.80;99.90;;;;;;5054278;28;20022;-84
2022/04/06 12:30:57;;;;;;;11.10;4.25;;;10.90;99.90;;;;;;5057366;28;20043;-85
2022/04/06 12:33:43;;;;;;;9.38;3.90;;;10.90;99.90;;;;;;5073843;28;20458;-85
2022/04/06 12:36:13;;;;;;;10.65;4.43;;;10.90;99.90;;;;;;5045329;28;20385;-84
2022/04/06 12:38:43;;;;;;;8.90;3.83;;;11.00;99.90;;;;;;5071106;28;20025;-84
2022/04/06 12:41:11;;;;;;;13.02;3.90;;;11.00;99.90;;;;;;5042554;28;20454;-84
2022/04/06 12:43:46;;;;;;;9.85;3.97;;;11.00;99.90;;;;;;5037874;28;20020;-84
2022/04/06 12:46:13;;;;;;;7.43;3.88;;;11.00;99.90;;;;;;5038141;28;20072;-84
2022/04/06 12:48:44;;;;;;;5.30;3.10;;;11.00;99.90;;;;;;5021372;28;20025;-85
2022/04/06 12:51:16;;;;;;;;;;;11.10;99.90;;;;;;5038220;28;20095;-85
2022/04/06 12:53:46;;;;;;;10.65;3.75;;;11.10;99.90;;;;;;5037268;28;19911;-84